ETEB 170356Z AUTO 19003KT 0600 FG VV001 01/01 A3002 RMK AO2 SLP204 T00050005 RVRNO FZRANO $ ETIK 170441Z AUTO 00000KT 9999 OVC010 02/02 A3005 RMK AO2 SLP194 $ EDDE 170420Z 00000KT 9999 FEW020 BKN036 M01/M02 Q1016 EDDF 170420Z 20003KT 160V260 1400 R25R/P2000N R25C/P2000N R25L/1900N R18/P2000N BR SCT001 BKN002 01/01 Q1017 R88/CLRD// TEMPO 0900 FG ETIC 170438Z AUTO 00000KT 5000 BR OVC004 M01/M01 A3003 RMK AO2 SNE08 CIG 004V006 SLP198 $ ETIH 170356Z AUTO 00000KT 5000 BR OVC005 M01/M01 A3004 RMK AO2 SNE09 SLP203 P0000 T10151015 $ ETSI 170420Z VRB02KT 0100 R25/0550N FZFG VV000 M01/M02 Q1017 RED EDDP 170420Z 22008KT 9999 BKN009 OVC024 01/M00 Q1017 TEMPO SCT009 EDDM 170420Z VRB01KT 4000 BR OVC005 M02/M02 Q1017 R88/290095 NOSIG ETSN 170420Z 15001KT 0150 FZFG VV001 M01/M01 Q1017 RED ETHN 170420Z 15002KT 1800 BR OVC002 01/01 Q1016 AMB EDDN 170420Z 11003KT 4000 BR FEW004 OVC007 01/00 Q1017 R10/19//95 EDDS 170420Z VRB01KT 0650 R25/0800V1300D FZFG SCT001 SCT040 M02/M03 Q1017

METAR Messwerte

Klicken Sie auf einen Ort, um die 36h-Historie abzurufen

Ort
m ü. NN
Zeit Temperatur Taupunkt Rel.
Luftfeuchte
Luftdruck:
Altimeter
NN
Station
Wind in Beaufort
(Knoten)
Sichtweite
(Meter)
Wolken
(Meter über Grund)
Wettererscheinung
Ansbach
467
Mo 17.12. 04:5611100 %1017
1020
962
S 2 (3)600 Nebel
Bad Windsheim / Illesheim
325
Mo 17.12. 05:4122100 %1018
1020
979
Windstill>= 10000Bedeckt (300) 
Erfurt-Bindersleben
323
Mo 17.12. 05:20-1-293 %1016
1018
978
Windstill>= 10000Stark bewölkt (1100)
Leicht bewölkt (610)
 
Frankfurt
113
Mo 17.12. 05:2011100 %1017
1018
1003
SSW 2 (3)
SSO - W
1400Stark bewölkt (61)
Wolkig (30)
Nebeldunst
Bald möglich: Nebel
Grafenwöhr
415
Mo 17.12. 05:38-1-1100 %1017
1020
968
Windstill5000Bedeckt (120)Nebeldunst
Hohenfels
442
Mo 17.12. 04:56-1-1100 %1017
1020
965
Windstill5000Bedeckt (150)Nebeldunst
Ingolstadt
370
Mo 17.12. 05:20-1-293 %1017
1020
973
Uml 1 (2)100 Nebel
Leipzig-Schkeuditz
149
Mo 17.12. 05:201-093 %1017
1018
999
SW 3 (8)>= 10000Bedeckt (730)
Stark bewölkt (270)
 
München
447
Mo 17.12. 05:20-2-2100 %1017
1020
964
Uml 1 (1)4000Bedeckt (150)Nebeldunst
Neuburg/Donau
387
Mo 17.12. 05:20-1-1100 %1017
1020
971
SSO 1 (1)150 Nebel
Niederstetten
473
Mo 17.12. 05:2011100 %1016
1019
960
SSO 1 (2)1800Bedeckt (61)Nebeldunst
Nürnberg
312
Mo 17.12. 05:201093 %1017
1019
980
OSO 2 (3)4000Bedeckt (210)
Leicht bewölkt (120)
Nebeldunst
Stuttgart
419
Mo 17.12. 05:20-2-393 %1017
1020
968
Uml 1 (1)650Wolkig (1200)
Wolkig (30)
Nebel

Altimeter: Einstellung am Altimeter (Höhenmesser), die Höhe 0 muss auf diesen Luftdruckwert zeigen, damit das Gerät die Stationshöhe richtig anzeigt.

NN: Luftdruck reduziert auf "Normal Null", auf Meereshöhe, dieser von der Temperatur abhängige Wert wird bisweilen unkorrekt einfach als "Luftdruck" bezeichnet. Eigentlich nur eine fiktive Größe, die es erlaubt, Stationen auf unterschiedlichen Höhen miteinander zu vergleichen.

Station: Realer Luftdruck an der Station.